Time;durP1;ratioP1;P1;durP2;ratioP2;P2;SDS_P1;SDS_P2;PMS_P1;PMS_P2;Temp;Humidity;BMP_temperature;BMP_pressure;BME280_temperature;BME280_humidity;BME280_pressure;Samples;Min_cycle;Max_cycle;Signal;HPM_P1;HPM_P2
2021/01/31 00:00:50;;;;;;;7.10;6.43;;;4.30;99.90;;;;;;5046167;28;20170;-68
2021/01/31 00:03:24;;;;;;;6.73;6.10;;;4.20;99.90;;;;;;5029932;28;20178;-68
2021/01/31 00:05:51;;;;;;;8.13;7.33;;;4.20;99.90;;;;;;5042358;28;20204;-69
2021/01/31 00:08:19;;;;;;;8.70;7.87;;;4.10;99.90;;;;;;5049885;28;21061;-68
2021/01/31 00:10:45;;;;;;;6.83;6.20;;;4.00;99.90;;;;;;5036367;28;20428;-68
2021/01/31 00:13:12;;;;;;;7.60;6.87;;;4.00;99.90;;;;;;5040466;28;20507;-68
2021/01/31 00:15:42;;;;;;;6.70;6.00;;;4.00;99.90;;;;;;5029837;28;20506;-68
2021/01/31 00:18:09;;;;;;;7.43;6.83;;;3.90;99.90;;;;;;5047176;28;20497;-68
2021/01/31 00:20:37;;;;;;;7.50;6.80;;;4.00;99.90;;;;;;5046016;28;20437;-68
2021/01/31 00:23:04;;;;;;;7.53;6.70;;;3.90;99.90;;;;;;5035865;28;20430;-68
2021/01/31 00:25:29;;;;;;;9.20;8.30;;;3.90;99.90;;;;;;5042884;28;20489;-68
2021/01/31 00:27:55;;;;;;;7.13;6.50;;;3.90;99.90;;;;;;5041449;28;20456;-68
2021/01/31 00:30:32;;;;;;;7.33;6.60;;;3.90;99.90;;;;;;5047265;28;20229;-68
2021/01/31 00:32:58;;;;;;;7.03;6.33;;;3.90;99.90;;;;;;5031213;28;20185;-68
2021/01/31 00:35:26;;;;;;;8.93;8.10;;;3.90;99.90;;;;;;5033984;28;20447;-68
2021/01/31 00:37:52;;;;;;;8.00;7.20;;;3.80;99.90;;;;;;5041879;28;20381;-69
2021/01/31 00:40:18;;;;;;;8.07;7.37;;;3.80;99.90;;;;;;5030390;28;20433;-68
2021/01/31 00:42:44;;;;;;;9.30;8.03;;;3.70;99.90;;;;;;5033097;28;20440;-68
2021/01/31 00:45:14;;;;;;;8.40;7.53;;;3.80;99.90;;;;;;5032331;28;20749;-68
2021/01/31 00:47:40;;;;;;;8.97;8.07;;;3.80;99.90;;;;;;5033967;28;20202;-69
2021/01/31 00:50:07;;;;;;;8.23;7.43;;;3.80;99.90;;;;;;5039127;28;20436;-68
2021/01/31 00:52:33;;;;;;;9.87;8.70;;;3.80;99.90;;;;;;5037845;28;20446;-68
2021/01/31 00:54:58;;;;;;;8.53;7.83;;;3.90;99.90;;;;;;5050316;28;20800;-68
2021/01/31 00:57:24;;;;;;;8.30;7.50;;;3.90;99.90;;;;;;5038818;28;20749;-68
2021/01/31 00:59:49;;;;;;;9.30;7.97;;;4.00;99.90;;;;;;5035895;28;20210;-68
2021/01/31 01:02:20;;;;;;;9.17;8.20;;;4.00;99.90;;;;;;5053243;28;20702;-68
2021/01/31 01:04:47;;;;;;;8.07;7.10;;;4.00;99.90;;;;;;5043662;28;20270;-69
2021/01/31 01:07:13;;;;;;;9.00;8.00;;;4.00;99.90;;;;;;5032535;28;20947;-68
2021/01/31 01:09:39;;;;;;;9.53;8.63;;;3.80;99.90;;;;;;5037402;28;20497;-68
2021/01/31 01:12:06;;;;;;;10.50;9.10;;;3.90;99.90;;;;;;5032091;28;20429;-68
2021/01/31 01:14:33;;;;;;;8.80;7.93;;;3.80;99.90;;;;;;5032563;28;20440;-69
2021/01/31 01:17:00;;;;;;;9.23;8.30;;;3.80;99.90;;;;;;5042931;28;20482;-68
2021/01/31 01:19:26;;;;;;;9.00;8.17;;;3.90;99.90;;;;;;5035272;28;20932;-69
2021/01/31 01:21:52;;;;;;;9.60;8.60;;;4.00;99.90;;;;;;5033512;28;20528;-68
2021/01/31 01:24:17;;;;;;;9.13;8.23;;;4.00;99.90;;;;;;5032279;28;20523;-69
2021/01/31 01:26:43;;;;;;;10.20;9.20;;;4.00;99.90;;;;;;5032621;28;20198;-68
2021/01/31 01:29:09;;;;;;;9.80;8.77;;;4.00;99.90;;;;;;5043718;28;20188;-68
2021/01/31 01:31:34;;;;;;;10.30;9.27;;;4.00;99.90;;;;;;5037541;28;20182;-69
2021/01/31 01:34:00;;;;;;;11.83;10.63;;;4.00;99.90;;;;;;5049310;28;20186;-69
2021/01/31 01:36:25;;;;;;;12.20;9.40;;;4.00;99.90;;;;;;5032326;28;20672;-69
2021/01/31 01:38:51;;;;;;;10.77;9.50;;;4.00;99.90;;;;;;5032630;28;20230;-69
2021/01/31 01:41:17;;;;;;;14.67;9.63;;;4.00;99.90;;;;;;5040274;28;20186;-69
2021/01/31 01:43:42;;;;;;;11.57;8.67;;;4.00;99.90;;;;;;5031413;28;20673;-68
2021/01/31 01:46:32;;;;;;;10.57;9.53;;;4.00;99.90;;;;;;5044119;28;20177;-69
2021/01/31 01:49:03;;;;;;;10.80;9.70;;;4.00;99.90;;;;;;5037992;28;20863;-69
2021/01/31 01:51:40;;;;;;;9.83;8.83;;;4.00;99.90;;;;;;5032371;28;20444;-69
2021/01/31 01:54:08;;;;;;;9.63;8.70;;;3.90;99.90;;;;;;5032161;28;20472;-69
2021/01/31 01:56:42;;;;;;;9.60;8.70;;;3.90;99.90;;;;;;5037241;28;20455;-68
2021/01/31 01:59:09;;;;;;;10.33;8.37;;;3.90;99.90;;;;;;5045791;28;20473;-68
2021/01/31 02:01:37;;;;;;;12.07;10.87;;;3.80;99.90;;;;;;5036958;28;20443;-68
2021/01/31 02:04:03;;;;;;;10.83;9.60;;;3.80;99.90;;;;;;5034182;28;20438;-68
2021/01/31 02:06:30;;;;;;;12.10;9.93;;;3.90;99.90;;;;;;5045676;28;20439;-69
2021/01/31 02:08:58;;;;;;;11.47;9.73;;;4.00;99.90;;;;;;5050122;28;20185;-68
2021/01/31 02:11:26;;;;;;;11.30;9.30;;;4.00;99.90;;;;;;5039404;28;20793;-68
2021/01/31 02:14:03;;;;;;;10.90;9.70;;;4.00;99.90;;;;;;5030781;28;20437;-68
2021/01/31 02:16:43;;;;;;;10.87;9.73;;;4.00;99.90;;;;;;5045955;28;21083;-68
2021/01/31 02:19:15;;;;;;;10.70;9.57;;;4.10;99.90;;;;;;5031223;28;20456;-68
2021/01/31 02:21:54;;;;;;;11.50;10.20;;;4.10;99.90;;;;;;5032476;28;20429;-68
2021/01/31 02:24:47;;;;;;;11.60;10.17;;;4.00;99.90;;;;;;5030167;28;20429;-68
2021/01/31 02:27:21;;;;;;;10.10;8.90;;;4.00;99.90;;;;;;5039233;28;20978;-68
2021/01/31 02:30:11;;;;;;;11.90;9.63;;;4.00;99.90;;;;;;5034183;28;20432;-68
2021/01/31 02:33:24;;;;;;;11.70;10.30;;;3.90;99.90;;;;;;5023061;28;20467;-68
2021/01/31 02:35:57;;;;;;;10.30;9.20;;;3.90;99.90;;;;;;5032098;28;20433;-68
2021/01/31 02:38:48;;;;;;;11.37;9.70;;;3.80;99.90;;;;;;5033537;28;21003;-68
2021/01/31 02:41:28;;;;;;;10.80;9.57;;;3.80;99.90;;;;;;5024881;28;20437;-68
2021/01/31 02:43:57;;;;;;;12.50;11.13;;;3.80;99.90;;;;;;5036321;28;20438;-68
2021/01/31 02:46:31;;;;;;;12.60;10.80;;;3.80;99.90;;;;;;5047460;28;20428;-68
2021/01/31 02:49:13;;;;;;;10.80;9.60;;;3.70;99.90;;;;;;5039188;28;20439;-68
2021/01/31 02:51:51;;;;;;;10.90;9.80;;;3.70;99.90;;;;;;5036688;28;20445;-68
2021/01/31 02:54:27;;;;;;;11.37;9.83;;;3.50;99.90;;;;;;5030619;28;20437;-68
2021/01/31 02:57:12;;;;;;;12.60;10.83;;;3.40;99.90;;;;;;5032847;28;20447;-68
2021/01/31 02:59:55;;;;;;;11.57;10.37;;;3.40;99.90;;;;;;5031926;28;20437;-68
2021/01/31 03:02:32;;;;;;;12.80;10.97;;;3.40;99.90;;;;;;5038620;28;20424;-68
2021/01/31 03:05:04;;;;;;;11.83;10.47;;;3.40;99.90;;;;;;5035156;28;20439;-68
2021/01/31 03:07:38;;;;;;;15.17;10.20;;;3.30;99.90;;;;;;5038927;28;20819;-68
2021/01/31 03:10:13;;;;;;;14.57;11.60;;;3.20;99.90;;;;;;5031776;28;20851;-68
2021/01/31 03:13:04;;;;;;;10.70;9.60;;;3.30;99.90;;;;;;5032694;28;20528;-68
2021/01/31 03:15:36;;;;;;;11.87;10.67;;;3.20;99.90;;;;;;5004974;28;20893;-68
2021/01/31 03:18:10;;;;;;;14.10;11.90;;;3.10;99.90;;;;;;5045065;28;20463;-68
2021/01/31 03:20:40;;;;;;;12.30;10.90;;;3.20;99.90;;;;;;5032728;28;20443;-68
2021/01/31 03:23:18;;;;;;;11.63;9.70;;;3.20;99.90;;;;;;5037248;28;20688;-68
2021/01/31 03:25:55;;;;;;;12.73;11.23;;;3.20;99.90;;;;;;5041135;28;20489;-68
2021/01/31 03:28:21;;;;;;;12.67;10.60;;;3.20;99.90;;;;;;5034717;28;20860;-68
2021/01/31 03:30:47;;;;;;;13.40;10.23;;;3.20;99.90;;;;;;5028587;28;20456;-68
2021/01/31 03:33:17;;;;;;;12.70;11.40;;;3.20;99.90;;;;;;5038815;28;20701;-68
2021/01/31 03:35:51;;;;;;;12.73;10.37;;;3.20;99.90;;;;;;5037448;28;20571;-68
2021/01/31 03:38:48;;;;;;;12.80;11.13;;;3.20;99.90;;;;;;5047199;28;20558;-68
2021/01/31 03:41:22;;;;;;;12.73;10.00;;;3.10;99.90;;;;;;5042993;28;20435;-68
2021/01/31 03:43:48;;;;;;;12.50;10.93;;;3.10;99.90;;;;;;5032853;28;20544;-68
2021/01/31 03:46:36;;;;;;;11.60;10.17;;;3.10;99.90;;;;;;5042319;28;20436;-68
2021/01/31 03:49:27;;;;;;;10.53;9.43;;;3.00;99.90;;;;;;5030424;28;20424;-68
2021/01/31 03:51:54;;;;;;;10.60;9.50;;;3.00;99.90;;;;;;5045219;28;20448;-68
2021/01/31 03:54:20;;;;;;;11.07;10.07;;;3.10;99.90;;;;;;5025926;28;20542;-68
2021/01/31 03:57:00;;;;;;;12.70;10.43;;;3.00;99.90;;;;;;5038618;28;20457;-68
2021/01/31 03:59:43;;;;;;;10.80;9.33;;;3.10;99.90;;;;;;5041010;28;20471;-68
2021/01/31 04:02:10;;;;;;;10.87;9.23;;;3.10;99.90;;;;;;5043286;28;20439;-68
2021/01/31 04:04:56;;;;;;;10.03;9.10;;;3.10;99.90;;;;;;5029898;28;20463;-69
2021/01/31 04:07:28;;;;;;;11.40;9.63;;;3.20;99.90;;;;;;5039772;28;20539;-68
2021/01/31 04:09:55;;;;;;;10.83;9.73;;;3.30;99.90;;;;;;5035729;28;20437;-68
2021/01/31 04:12:23;;;;;;;11.30;9.73;;;3.40;99.90;;;;;;5046848;28;20506;-68
2021/01/31 04:15:00;;;;;;;12.03;9.93;;;3.40;99.90;;;;;;5029716;28;20843;-68
2021/01/31 04:17:26;;;;;;;11.90;10.53;;;3.30;99.90;;;;;;5040692;28;20477;-69
2021/01/31 04:19:51;;;;;;;13.27;10.17;;;3.30;99.90;;;;;;5029687;28;20531;-69
2021/01/31 04:22:17;;;;;;;12.10;10.87;;;3.40;99.90;;;;;;5030205;28;20630;-69
2021/01/31 04:24:42;;;;;;;14.47;12.17;;;3.50;99.90;;;;;;5012134;28;20166;-68
2021/01/31 04:27:08;;;;;;;15.10;11.97;;;3.60;99.90;;;;;;5034632;28;20221;-69
2021/01/31 04:29:35;;;;;;;17.20;13.00;;;3.50;99.90;;;;;;5039555;28;20297;-69
2021/01/31 04:32:01;;;;;;;12.00;10.37;;;3.50;99.90;;;;;;5044425;28;20472;-69
2021/01/31 04:34:27;;;;;;;11.30;10.10;;;3.50;99.90;;;;;;5034017;28;20519;-68
2021/01/31 04:36:52;;;;;;;15.10;11.13;;;3.50;99.90;;;;;;5039301;28;20548;-69
2021/01/31 04:39:18;;;;;;;13.20;11.63;;;3.50;99.90;;;;;;5040981;28;20220;-69
2021/01/31 04:41:43;;;;;;;13.03;11.73;;;3.50;99.90;;;;;;5023302;28;20185;-70
2021/01/31 04:44:15;;;;;;;13.20;11.80;;;3.50;99.90;;;;;;5033193;28;20417;-69
2021/01/31 04:46:51;;;;;;;13.40;11.57;;;3.50;99.90;;;;;;5041140;28;20210;-69
2021/01/31 04:49:42;;;;;;;14.70;12.70;;;3.50;99.90;;;;;;5037369;28;20996;-68
2021/01/31 04:52:13;;;;;;;14.03;12.50;;;3.40;99.90;;;;;;5047463;28;20517;-69
2021/01/31 04:55:07;;;;;;;13.23;11.70;;;3.40;99.90;;;;;;5040445;28;20514;-69
2021/01/31 04:57:40;;;;;;;12.93;11.57;;;3.60;99.90;;;;;;5044601;28;20490;-69
2021/01/31 05:00:17;;;;;;;13.47;12.07;;;3.50;99.90;;;;;;5040589;28;20463;-70
2021/01/31 05:02:47;;;;;;;16.27;12.13;;;3.60;99.90;;;;;;5034319;28;20943;-69
2021/01/31 05:05:44;;;;;;;12.37;11.17;;;3.60;99.90;;;;;;5052053;28;20444;-69
2021/01/31 05:08:19;;;;;;;13.50;11.63;;;3.60;99.90;;;;;;5015078;28;20452;-68
2021/01/31 05:10:46;;;;;;;13.57;10.87;;;3.50;99.90;;;;;;5029212;28;20426;-70
2021/01/31 05:13:24;;;;;;;14.50;11.57;;;3.60;99.90;;;;;;5031574;28;20463;-69
2021/01/31 05:16:19;;;;;;;13.03;11.63;;;3.50;99.90;;;;;;5041924;28;20443;-70
2021/01/31 05:18:51;;;;;;;14.17;11.20;;;3.40;99.90;;;;;;5027703;28;20472;-70
2021/01/31 05:21:20;;;;;;;14.30;11.53;;;3.50;99.90;;;;;;5038055;28;20942;-69
2021/01/31 05:24:02;;;;;;;13.70;12.10;;;3.40;99.90;;;;;;5035305;28;20939;-69
2021/01/31 05:26:40;;;;;;;13.67;11.90;;;3.30;99.90;;;;;;5016400;28;20959;-69
2021/01/31 05:29:16;;;;;;;12.87;11.30;;;3.30;99.90;;;;;;5035723;28;20434;-70
2021/01/31 05:31:51;;;;;;;12.83;11.10;;;3.40;99.90;;;;;;5038156;28;20436;-69
2021/01/31 05:34:32;;;;;;;12.70;11.03;;;3.40;99.90;;;;;;5045431;28;20493;-70
2021/01/31 05:37:03;;;;;;;11.43;10.13;;;3.50;99.90;;;;;;5014315;28;20486;-69
2021/01/31 05:39:54;;;;;;;13.70;12.30;;;3.60;99.90;;;;;;5032339;28;20472;-70
2021/01/31 05:42:23;;;;;;;12.93;11.57;;;3.60;99.90;;;;;;5032624;28;20435;-68
2021/01/31 05:45:02;;;;;;;12.60;11.20;;;3.60;99.90;;;;;;5049653;28;20436;-69
2021/01/31 05:47:43;;;;;;;16.87;12.87;;;3.60;99.90;;;;;;5042223;28;20457;-70
2021/01/31 05:50:20;;;;;;;15.30;13.30;;;3.60;99.90;;;;;;5032369;28;20437;-70
2021/01/31 05:52:46;;;;;;;16.70;13.20;;;3.70;99.90;;;;;;5016993;28;20447;-69
2021/01/31 05:55:32;;;;;;;13.40;11.00;;;3.70;99.90;;;;;;5038400;28;20432;-70
2021/01/31 05:58:17;;;;;;;18.30;13.40;;;3.60;99.90;;;;;;5052206;28;20558;-70
2021/01/31 06:00:43;;;;;;;14.47;12.47;;;3.60;99.90;;;;;;5000621;28;20512;-70
2021/01/31 06:03:11;;;;;;;13.40;11.73;;;3.60;99.90;;;;;;5041028;28;20432;-69
2021/01/31 06:05:38;;;;;;;14.97;11.57;;;3.60;99.90;;;;;;5016352;28;20429;-69
2021/01/31 06:08:33;;;;;;;15.57;12.77;;;3.50;99.90;;;;;;5044302;28;20452;-70
2021/01/31 06:11:06;;;;;;;14.40;12.17;;;3.50;99.90;;;;;;5034135;28;20452;-68
2021/01/31 06:13:34;;;;;;;16.97;12.70;;;3.40;99.90;;;;;;5045095;28;20435;-69
2021/01/31 06:16:14;;;;;;;13.83;11.70;;;3.50;99.90;;;;;;5035234;28;20425;-69
2021/01/31 06:18:47;;;;;;;14.70;12.57;;;3.40;99.90;;;;;;5020189;28;20801;-69
2021/01/31 06:21:18;;;;;;;15.17;12.27;;;3.50;99.90;;;;;;5033893;28;20776;-69
2021/01/31 06:23:51;;;;;;;17.17;12.50;;;3.50;99.90;;;;;;5044866;28;20444;-70
2021/01/31 06:26:25;;;;;;;16.00;11.30;;;3.70;99.90;;;;;;5020327;28;20440;-69
2021/01/31 06:28:57;;;;;;;13.83;11.27;;;3.60;99.90;;;;;;5052203;28;20515;-69
2021/01/31 06:31:41;;;;;;;13.60;11.67;;;3.50;99.90;;;;;;5039014;28;20452;-69
2021/01/31 06:34:09;;;;;;;14.40;11.27;;;3.50;99.90;;;;;;5031320;28;20928;-69
2021/01/31 06:37:10;;;;;;;15.90;12.87;;;3.60;99.90;;;;;;5039800;28;20467;-69
2021/01/31 06:39:53;;;;;;;16.50;12.97;;;3.60;99.90;;;;;;5047862;28;20450;-70
2021/01/31 06:42:42;;;;;;;14.60;12.33;;;3.60;99.90;;;;;;5046360;28;20490;-70
2021/01/31 06:45:22;;;;;;;13.50;10.53;;;3.60;99.90;;;;;;5042985;28;20512;-68
2021/01/31 06:48:00;;;;;;;12.23;10.93;;;3.60;99.90;;;;;;5032017;28;20471;-69
2021/01/31 06:50:57;;;;;;;15.20;12.00;;;3.60;99.90;;;;;;5039872;28;20431;-69
2021/01/31 06:53:47;;;;;;;13.30;11.40;;;3.70;99.90;;;;;;5049756;28;20448;-70
2021/01/31 06:56:31;;;;;;;14.20;11.10;;;3.70;99.90;;;;;;5036897;28;20458;-68
2021/01/31 06:59:15;;;;;;;14.13;10.70;;;3.60;99.90;;;;;;5036112;28;20806;-69
2021/01/31 07:01:54;;;;;;;14.07;11.20;;;3.50;99.90;;;;;;5031271;28;20481;-69
2021/01/31 07:04:53;;;;;;;15.50;12.10;;;3.60;99.90;;;;;;5031109;28;20416;-69
2021/01/31 07:07:56;;;;;;;14.47;12.00;;;3.60;99.90;;;;;;5029482;28;20552;-69
2021/01/31 07:10:22;;;;;;;13.83;12.03;;;3.60;99.90;;;;;;5039852;28;20433;-69
2021/01/31 07:13:11;;;;;;;13.37;11.90;;;3.50;99.90;;;;;;5044129;28;20451;-69
2021/01/31 07:16:01;;;;;;;15.83;12.67;;;3.50;99.90;;;;;;5028662;28;20180;-69
2021/01/31 07:18:30;;;;;;;13.00;11.33;;;3.50;99.90;;;;;;5023471;28;20468;-69
2021/01/31 07:20:59;;;;;;;16.17;12.53;;;3.60;99.90;;;;;;5043107;28;20432;-71
2021/01/31 07:23:37;;;;;;;15.27;12.20;;;3.50;99.90;;;;;;5032278;28;20851;-69
2021/01/31 07:26:21;;;;;;;13.00;11.40;;;3.60;99.90;;;;;;5030418;28;20519;-69
2021/01/31 07:28:50;;;;;;;16.93;12.37;;;3.50;99.90;;;;;;5043713;28;20434;-69
2021/01/31 07:31:45;;;;;;;16.07;12.40;;;3.50;99.90;;;;;;5036319;28;20441;-70
2021/01/31 07:34:40;;;;;;;13.47;10.93;;;3.50;99.90;;;;;;5031050;28;20487;-69
2021/01/31 07:37:16;;;;;;;12.00;10.30;;;3.50;99.90;;;;;;5030571;28;20451;-70
2021/01/31 07:39:54;;;;;;;14.07;11.70;;;3.50;99.90;;;;;;5036621;28;20434;-70
2021/01/31 07:42:21;;;;;;;14.73;12.37;;;3.40;99.90;;;;;;5038989;28;20467;-69
2021/01/31 07:44:49;;;;;;;18.10;14.70;;;3.40;99.90;;;;;;5029669;28;20425;-69
2021/01/31 07:47:14;;;;;;;16.17;13.50;;;3.30;99.90;;;;;;5032648;28;20454;-68
2021/01/31 07:49:55;;;;;;;16.50;12.17;;;3.40;99.90;;;;;;5035412;28;20420;-70
2021/01/31 07:52:28;;;;;;;14.83;11.27;;;3.40;99.90;;;;;;5041473;28;20174;-69
2021/01/31 07:55:11;;;;;;;16.13;12.80;;;3.40;99.90;;;;;;5023658;28;20435;-69
2021/01/31 07:57:39;;;;;;;13.50;11.00;;;3.50;99.90;;;;;;5003708;28;20468;-69
2021/01/31 08:00:17;;;;;;;11.90;10.70;;;3.40;99.90;;;;;;5029486;28;20455;-69
2021/01/31 08:02:46;;;;;;;14.13;11.70;;;3.50;99.90;;;;;;5036038;28;20424;-69
2021/01/31 08:05:46;;;;;;;13.23;11.83;;;3.60;99.90;;;;;;5028939;28;20587;-69
2021/01/31 08:08:42;;;;;;;12.60;10.87;;;3.60;99.90;;;;;;5019483;28;20461;-70
2021/01/31 08:11:12;;;;;;;15.20;11.90;;;3.70;99.90;;;;;;5043476;28;20439;-69
2021/01/31 08:13:59;;;;;;;11.97;10.33;;;3.70;99.90;;;;;;5029665;28;20444;-69
2021/01/31 08:16:43;;;;;;;14.77;12.23;;;3.70;99.90;;;;;;5029216;28;20455;-69
2021/01/31 08:19:31;;;;;;;15.07;12.40;;;3.80;99.90;;;;;;5029663;28;20464;-68
2021/01/31 08:22:12;;;;;;;13.13;10.30;;;3.80;99.90;;;;;;5030691;28;20444;-68
2021/01/31 08:24:58;;;;;;;15.60;11.90;;;3.90;99.90;;;;;;5029606;28;20436;-69
2021/01/31 08:27:54;;;;;;;13.50;11.03;;;3.90;99.90;;;;;;5031247;28;20452;-69
2021/01/31 08:30:35;;;;;;;15.97;11.73;;;3.90;99.90;;;;;;5022303;28;20447;-69
2021/01/31 08:33:04;;;;;;;12.50;10.40;;;3.90;99.90;;;;;;5034179;28;20499;-69
2021/01/31 08:35:41;;;;;;;12.57;10.43;;;4.00;99.90;;;;;;5032163;28;20424;-71
2021/01/31 08:38:34;;;;;;;11.77;10.67;;;3.90;99.90;;;;;;5034817;28;20866;-71
2021/01/31 08:41:03;;;;;;;14.03;12.00;;;4.00;99.90;;;;;;5035861;28;20440;-70
2021/01/31 08:43:33;;;;;;;13.20;10.70;;;4.10;99.90;;;;;;5033543;28;20516;-69
2021/01/31 08:46:03;;;;;;;16.57;12.37;;;4.20;99.90;;;;;;5026999;28;20429;-73
2021/01/31 08:48:28;;;;;;;13.23;11.70;;;4.20;99.90;;;;;;5030545;28;20472;-72
2021/01/31 08:51:17;;;;;;;13.37;12.07;;;4.30;99.90;;;;;;5029243;28;20436;-72
2021/01/31 08:53:43;;;;;;;12.03;10.70;;;4.30;99.90;;;;;;5026601;28;20186;-71
2021/01/31 08:56:22;;;;;;;12.50;10.70;;;4.40;99.90;;;;;;5035030;28;20809;-71
2021/01/31 08:58:49;;;;;;;12.87;11.20;;;4.50;99.90;;;;;;5018759;28;20206;-72
2021/01/31 09:01:15;;;;;;;13.10;11.70;;;4.40;99.90;;;;;;5026196;28;20424;-69
2021/01/31 09:03:43;;;;;;;13.27;11.63;;;4.30;99.90;;;;;;5026965;28;20419;-72
2021/01/31 09:06:09;;;;;;;11.70;10.50;;;4.40;99.90;;;;;;5041563;28;20182;-72
2021/01/31 09:08:35;;;;;;;13.03;11.20;;;4.50;99.90;;;;;;5043893;28;20582;-72
2021/01/31 09:11:05;;;;;;;13.20;11.80;;;4.60;99.90;;;;;;5016322;28;20741;-73
2021/01/31 09:13:33;;;;;;;14.60;11.93;;;4.70;99.90;;;;;;5038065;28;21011;-72
2021/01/31 09:16:18;;;;;;;13.90;12.40;;;4.70;99.90;;;;;;5031599;28;21478;-73
2021/01/31 09:18:44;;;;;;;16.07;12.50;;;4.70;99.90;;;;;;5044297;28;20474;-71
2021/01/31 09:21:25;;;;;;;14.67;12.00;;;4.80;99.90;;;;;;5035714;28;20421;-70
2021/01/31 09:23:52;;;;;;;15.10;12.50;;;4.80;99.90;;;;;;5041840;28;20792;-70
2021/01/31 09:26:17;;;;;;;19.97;13.90;;;4.80;99.90;;;;;;5035343;28;20423;-72
2021/01/31 09:28:43;;;;;;;14.20;12.53;;;4.80;99.90;;;;;;5035104;28;20519;-70
2021/01/31 09:31:09;;;;;;;13.47;12.10;;;4.90;99.90;;;;;;5051142;28;20178;-72
2021/01/31 09:33:41;;;;;;;12.83;11.43;;;4.90;99.90;;;;;;5050067;28;20178;-72
2021/01/31 09:36:16;;;;;;;12.47;10.23;;;4.90;99.90;;;;;;5044527;28;20432;-73
2021/01/31 09:38:42;;;;;;;11.90;10.50;;;4.80;99.90;;;;;;5033855;28;20510;-72
2021/01/31 09:41:09;;;;;;;11.23;10.23;;;4.80;99.90;;;;;;5039045;28;20836;-72
2021/01/31 09:43:35;;;;;;;10.60;9.50;;;4.70;99.90;;;;;;5029574;28;20597;-72
2021/01/31 09:46:03;;;;;;;11.80;10.07;;;4.50;99.90;;;;;;5042499;28;20599;-74
2021/01/31 09:48:31;;;;;;;11.30;10.10;;;4.50;99.90;;;;;;5033046;28;20489;-68
2021/01/31 09:51:03;;;;;;;10.50;9.40;;;4.50;99.90;;;;;;5047388;28;20444;-72
2021/01/31 09:53:38;;;;;;;12.77;11.43;;;4.50;99.90;;;;;;5027979;28;20447;-73
2021/01/31 09:56:10;;;;;;;10.80;9.80;;;4.60;99.90;;;;;;5051399;28;20428;-73
2021/01/31 09:58:42;;;;;;;10.87;9.63;;;4.70;99.90;;;;;;5040959;28;20460;-72
2021/01/31 10:01:22;;;;;;;12.20;10.00;;;4.90;99.90;;;;;;5033513;28;20421;-72
2021/01/31 10:04:16;;;;;;;13.30;11.30;;;4.90;99.90;;;;;;5023694;28;20519;-73
2021/01/31 10:06:47;;;;;;;13.67;11.13;;;4.80;99.90;;;;;;5020597;28;20454;-72
2021/01/31 10:09:12;;;;;;;12.23;10.97;;;4.80;99.90;;;;;;5034569;28;20511;-73
2021/01/31 10:11:44;;;;;;;12.47;9.93;;;4.70;99.90;;;;;;5045383;28;20506;-72
2021/01/31 10:14:33;;;;;;;12.30;10.57;;;4.70;99.90;;;;;;5052084;28;20184;-72
2021/01/31 10:17:18;;;;;;;11.70;10.53;;;4.60;99.90;;;;;;5003445;28;20850;-72
2021/01/31 10:19:44;;;;;;;11.43;10.10;;;4.60;99.90;;;;;;5032333;28;20432;-71
2021/01/31 10:22:33;;;;;;;11.40;10.10;;;4.60;99.90;;;;;;5032721;28;20420;-72
2021/01/31 10:24:59;;;;;;;11.50;10.30;;;4.60;99.90;;;;;;5042475;28;20435;-72
2021/01/31 10:27:33;;;;;;;12.93;11.63;;;4.50;99.90;;;;;;5025877;28;20534;-71
2021/01/31 10:30:17;;;;;;;11.10;10.00;;;4.70;99.90;;;;;;5014838;28;20269;-71
2021/01/31 10:32:43;;;;;;;14.57;11.53;;;4.80;99.90;;;;;;5045585;28;20966;-72
2021/01/31 10:35:31;;;;;;;12.37;11.13;;;4.80;99.90;;;;;;5031229;28;20428;-71
2021/01/31 10:37:58;;;;;;;13.77;11.37;;;4.70;99.90;;;;;;5047736;28;20213;-72
2021/01/31 10:40:24;;;;;;;13.90;11.33;;;4.60;99.90;;;;;;5048178;28;20548;-71
2021/01/31 10:42:49;;;;;;;13.50;11.57;;;4.70;99.90;;;;;;5038404;28;20464;-72
2021/01/31 10:45:22;;;;;;;13.17;11.77;;;4.60;99.90;;;;;;5040948;28;20232;-72
2021/01/31 10:47:49;;;;;;;15.43;12.57;;;4.70;99.90;;;;;;5031450;28;20194;-72
2021/01/31 10:50:19;;;;;;;16.03;12.33;;;4.80;99.90;;;;;;5049136;28;20435;-71
2021/01/31 10:52:46;;;;;;;14.27;11.00;;;4.90;99.90;;;;;;5043576;28;20436;-71
2021/01/31 10:55:13;;;;;;;15.27;13.20;;;4.80;99.90;;;;;;5030927;28;20436;-72
2021/01/31 10:57:38;;;;;;;12.37;11.07;;;4.80;99.90;;;;;;5046086;28;20452;-72
2021/01/31 11:00:09;;;;;;;13.50;11.40;;;4.80;99.90;;;;;;5049323;28;20428;-72
2021/01/31 11:02:35;;;;;;;14.40;12.17;;;4.80;99.90;;;;;;5031430;28;20240;-71
2021/01/31 11:05:02;;;;;;;15.87;12.37;;;4.70;99.90;;;;;;5039630;28;20440;-72
2021/01/31 11:07:28;;;;;;;13.37;11.90;;;4.70;99.90;;;;;;5014797;28;20450;-72
2021/01/31 11:09:53;;;;;;;17.23;12.90;;;4.80;99.90;;;;;;5031908;28;20429;-71
2021/01/31 11:12:19;;;;;;;16.27;13.30;;;4.80;99.90;;;;;;5050564;28;20265;-71
2021/01/31 11:14:45;;;;;;;14.77;11.97;;;4.80;99.90;;;;;;5023166;28;20651;-71
2021/01/31 11:17:10;;;;;;;14.50;11.63;;;4.80;99.90;;;;;;5030998;28;20210;-72
2021/01/31 11:19:36;;;;;;;11.80;10.60;;;4.90;99.90;;;;;;5046631;28;20285;-72
2021/01/31 11:22:01;;;;;;;14.57;12.30;;;5.00;99.90;;;;;;5041896;28;20221;-72
2021/01/31 11:24:27;;;;;;;13.90;12.57;;;5.10;99.90;;;;;;5030210;28;20228;-72
2021/01/31 11:26:52;;;;;;;15.70;12.70;;;5.10;99.90;;;;;;5044677;28;20280;-71
2021/01/31 11:29:18;;;;;;;13.20;11.90;;;5.10;99.90;;;;;;5016055;28;20201;-71
2021/01/31 11:31:43;;;;;;;14.50;13.03;;;5.40;99.90;;;;;;5050321;28;20177;-72
2021/01/31 11:34:09;;;;;;;13.63;11.50;;;5.60;99.90;;;;;;5040773;28;20171;-72
2021/01/31 11:36:35;;;;;;;13.40;11.37;;;5.90;99.90;;;;;;5045407;28;20567;-72
2021/01/31 11:39:10;;;;;;;13.10;11.57;;;5.90;99.90;;;;;;5042929;28;20208;-71
2021/01/31 11:41:38;;;;;;;12.57;11.13;;;6.00;99.90;;;;;;5044431;28;20202;-71
2021/01/31 11:44:07;;;;;;;14.50;12.00;;;6.10;99.90;;;;;;5030024;28;20448;-72
2021/01/31 11:46:33;;;;;;;12.13;10.47;;;6.20;99.90;;;;;;5026690;28;20923;-72
2021/01/31 11:48:59;;;;;;;11.77;10.00;;;6.20;99.90;;;;;;5048694;28;20429;-71
2021/01/31 11:51:25;;;;;;;12.07;10.23;;;6.00;99.90;;;;;;5043624;28;20443;-72
2021/01/31 11:53:51;;;;;;;14.40;10.73;;;5.90;99.90;;;;;;5040114;28;20486;-71
2021/01/31 11:56:16;;;;;;;11.37;10.27;;;5.90;99.90;;;;;;5050194;28;20649;-72
2021/01/31 11:58:42;;;;;;;10.17;9.10;;;5.90;99.90;;;;;;5033454;28;20563;-72
2021/01/31 12:01:10;;;;;;;12.10;10.30;;;5.90;99.90;;;;;;5028668;28;20223;-71
2021/01/31 12:03:36;;;;;;;13.00;11.53;;;5.90;99.90;;;;;;5040367;28;20261;-72
2021/01/31 12:06:01;;;;;;;10.40;9.40;;;5.70;99.90;;;;;;5036449;28;20491;-72
2021/01/31 12:08:27;;;;;;;11.13;9.90;;;5.70;99.90;;;;;;5031448;28;20285;-72
2021/01/31 12:10:52;;;;;;;12.10;10.80;;;5.70;99.90;;;;;;5030591;28;20178;-72
2021/01/31 12:13:18;;;;;;;13.47;12.10;;;5.80;99.90;;;;;;5037952;28;20205;-72
2021/01/31 12:15:44;;;;;;;12.13;10.73;;;5.80;99.90;;;;;;5049754;28;20174;-72
2021/01/31 12:18:09;;;;;;;14.13;11.80;;;5.80;99.90;;;;;;5032243;28;20890;-72
2021/01/31 12:20:35;;;;;;;12.53;11.33;;;5.70;99.90;;;;;;5033987;28;20256;-72
2021/01/31 12:23:00;;;;;;;14.03;12.53;;;5.60;99.90;;;;;;5049848;28;20660;-72
2021/01/31 12:25:26;;;;;;;13.90;11.63;;;5.40;99.90;;;;;;5038451;28;20185;-72
2021/01/31 12:27:52;;;;;;;12.73;11.53;;;5.30;99.90;;;;;;5028962;28;20281;-72
2021/01/31 12:30:20;;;;;;;13.80;11.80;;;5.30;99.90;;;;;;5043327;28;20170;-72
2021/01/31 12:32:46;;;;;;;14.90;12.40;;;5.30;99.90;;;;;;5037531;28;20428;-72
2021/01/31 12:35:11;;;;;;;12.70;11.33;;;5.40;99.90;;;;;;5049111;28;20542;-72
2021/01/31 12:37:37;;;;;;;13.97;12.50;;;5.40;99.90;;;;;;5035307;28;20229;-72
2021/01/31 12:40:05;;;;;;;20.03;15.07;;;5.40;99.90;;;;;;5032148;28;20171;-72
2021/01/31 12:42:30;;;;;;;14.60;11.83;;;5.40;99.90;;;;;;5049610;28;20258;-72
2021/01/31 12:44:56;;;;;;;12.50;11.20;;;5.30;99.90;;;;;;5019912;28;20579;-72
2021/01/31 12:47:22;;;;;;;14.90;11.80;;;5.40;99.90;;;;;;5029894;28;20225;-72
2021/01/31 12:49:47;;;;;;;14.07;12.57;;;5.50;99.90;;;;;;5048327;28;20184;-72
2021/01/31 12:52:13;;;;;;;12.80;11.47;;;5.50;99.90;;;;;;5048477;28;20181;-72
2021/01/31 12:54:39;;;;;;;13.60;11.30;;;5.40;99.90;;;;;;5033322;28;20265;-72
2021/01/31 12:57:05;;;;;;;15.30;10.67;;;5.20;99.90;;;;;;5046604;28;20201;-72
2021/01/31 12:59:30;;;;;;;15.00;10.27;;;5.20;99.90;;;;;;5034621;28;20456;-72
2021/01/31 13:01:56;;;;;;;13.43;11.17;;;5.20;99.90;;;;;;5032966;28;20166;-72
2021/01/31 13:04:22;;;;;;;12.60;11.00;;;5.20;99.90;;;;;;5032164;28;20514;-72
2021/01/31 13:06:47;;;;;;;11.97;10.80;;;5.20;99.90;;;;;;5049245;28;20185;-72
2021/01/31 13:09:13;;;;;;;15.00;11.80;;;5.20;99.90;;;;;;5052662;28;20285;-72